La Farge, WI (54639)

6:25 PM CDT on July 25, 2016 (GMT -0500)
West Lima, WI | | Change Station

Elev 1276 ft 43.53 °N, 90.55 °W | Updated 23 seconds ago

Clear
Clear
80.4 °F
Feels Like 82 °F
N
0.4
Wind Variable Wind from NW
Gusts 2.5 mph

Today
High -- | Low -- °F
--% Chance of Precip.
Yesterday
High -- | Low -- °F
Precip. -- in
Pressure 30.04 in
Visibility 10.0 miles
Clouds Clear
Heat Index 82 °F
Dew Point 65 °F
Humidity 60%
Rainfall 0.00 in
Snow Depth Not available.
5:45 AM 8:32 PM
Waning Gibbous, 61% visible
METAR KY51 252315Z AUTO 33005KT 10SM CLR 27/17 A3004 RMK AO1 T02670171
Pressure 30.04 in
Visibility 10.0 miles
Clouds Clear
Heat Index 82 °F
Dew Point 65 °F
Humidity 60%
Rainfall 0.00 in
Snow Depth Not available.
5:45 AM 8:32 PM
Waning Gibbous, 61% visible
METAR KY51 252315Z AUTO 33005KT 10SM CLR 27/17 A3004 RMK AO1 T02670171

10-Day Weather Forecast

Almanac

Astronomy

Jul. 25, 2016 Rise Set
Actual Time
Civil Twilight
Nautical Twilight
Astronomical Twilight
Moon
Length of Visible Light
Length of Day
Tomorrow will be .
, % of the Moon is Illuminated

Today's Extremes

State Highs State Lows

Community

WunderPhotos

Upload Photos

1,927,444 photos uploaded!

WunderBlog® & News

Nearby

Air Quality

  Air Quality AQ Index Pollutant
Not available.

Snow Depth

Station Depth Elevation

Earthquake Activity

City Distance Mag. Time & Date
Minimum magnitude displayed is 2.5.

Coastal Water Temperatures

Place Temperature

Stations

Nearby Weather Stations

Station Location Temp. Windchill Dew Point Humidity Wind Precip. Elev Updated Type
                   

Watches & Warnings

There are currently no watches in effect.